Main page
METAR-TAF:

METAR-TAF

Airports :

Nan Nakhon Airport

Nan, Thailand

latitude: 18-46N, longitude: 100-46E, elevation: 200 m

Current weather observation

The report was made 8 hours and 38 minutes ago, at 11:00 UTC
Wind 1 kt from the South
Temperature 37°C
Humidity 35%
Pressure 1001 hPa
Visibility 10 km or more
Few clouds at a height of 2500 ft

METAR: VTCN 191100Z 19001KT 9999 FEW025 37/19 Q1001 NOSIG

Time: 02:38 (19:38 UTC)

Forecast

The report was made 2 hours and 38 minutes ago, at 17:00 UTC
Forecast valid from 19 at 18 UTC to 20 at 18 UTC
Wind 5 kt from the Southeast
Visibility 10 km or more
Few clouds at a height of 3000 ft

TAF: VTCN 191700Z 1918/2018 14005KT 9999 FEW030

Weather observations and forecasts of more than 4000 airports (METAR and TAF reports).

The available stations are represented by yellow and red dots on the map.

Hover mouse over dot to see the name of the station.

Then click to see weather observations and forecasts.

To change the map : click on the green buttons with a black cross to zoom in, on the green button with a dash to zoom out, or on the green arrows for adjacent maps.


METAR-TAF: